createdAt,value
2019-02-12T00:00:08.079Z,22.10
2019-02-12T00:02:36.457Z,25.33
2019-02-12T00:05:05.696Z,22.60
2019-02-12T00:07:34.079Z,36.40
2019-02-12T00:10:02.484Z,24.33
2019-02-12T00:12:31.157Z,23.20
2019-02-12T00:14:59.541Z,25.63
2019-02-12T00:17:27.941Z,25.67
2019-02-12T00:19:56.327Z,25.17
2019-02-12T00:22:25.078Z,26.67
2019-02-12T00:24:53.588Z,26.60
2019-02-12T00:27:21.994Z,23.93
2019-02-12T00:29:51.142Z,25.83
2019-02-12T00:32:19.713Z,24.43
2019-02-12T00:34:48.415Z,24.00
2019-02-12T00:37:16.804Z,23.47
2019-02-12T00:39:45.577Z,25.73
2019-02-12T00:42:13.973Z,23.40
2019-02-12T00:44:42.460Z,25.43
2019-02-12T00:47:11.232Z,32.83
2019-02-12T00:49:39.913Z,24.70
2019-02-12T00:52:08.314Z,23.77
2019-02-12T00:54:36.795Z,24.77
2019-02-12T00:57:05.560Z,25.20
2019-02-12T00:59:33.953Z,27.13
2019-02-12T01:02:02.628Z,23.33
2019-02-12T01:04:31.419Z,25.10
2019-02-12T01:07:00.108Z,24.10
2019-02-12T01:09:28.512Z,34.20
2019-02-12T01:11:57.378Z,31.07
2019-02-12T01:14:25.777Z,24.57
2019-02-12T01:16:54.183Z,23.93
2019-02-12T01:19:22.923Z,24.73
2019-02-12T01:21:51.318Z,23.50
2019-02-12T01:24:19.699Z,23.10
2019-02-12T01:26:48.366Z,24.07
2019-02-12T01:29:17.052Z,24.60
2019-02-12T01:31:46.246Z,23.70
2019-02-12T01:34:14.938Z,24.23
2019-02-12T01:36:43.616Z,24.07
2019-02-12T01:39:12.611Z,23.57
2019-02-12T01:41:41.005Z,24.63
2019-02-12T01:44:09.448Z,23.90
2019-02-12T01:46:37.858Z,25.27
2019-02-12T01:49:06.538Z,23.03
2019-02-12T01:51:35.384Z,23.83
2019-02-12T01:54:04.122Z,23.63
2019-02-12T01:56:32.510Z,24.83
2019-02-12T01:59:01.483Z,24.03
2019-02-12T02:01:29.870Z,26.63
2019-02-12T02:03:58.555Z,25.50
2019-02-12T02:06:27.243Z,24.27
2019-02-12T02:08:55.747Z,23.73
2019-02-12T02:11:24.134Z,23.43
2019-02-12T02:13:52.515Z,23.63
2019-02-12T02:16:20.918Z,29.93
2019-02-12T02:18:49.300Z,29.10
2019-02-12T02:21:18.025Z,25.70
2019-02-12T02:23:46.714Z,25.00
2019-02-12T02:26:15.101Z,26.77
2019-02-12T02:28:43.602Z,31.10
2019-02-12T02:31:12.579Z,24.23
2019-02-12T02:33:40.952Z,23.53
2019-02-12T02:36:09.422Z,24.43
2019-02-12T02:38:38.108Z,25.10
2019-02-12T02:41:06.826Z,23.60
2019-02-12T02:43:35.449Z,23.23
2019-02-12T02:46:04.089Z,24.63
2019-02-12T02:48:32.704Z,23.83
2019-02-12T02:51:01.144Z,23.30
2019-02-12T02:53:29.767Z,25.17
2019-02-12T02:55:58.138Z,22.17
2019-02-12T02:58:26.541Z,23.23
2019-02-12T03:00:55.267Z,23.17
2019-02-12T03:03:23.659Z,23.40
2019-02-12T03:05:52.294Z,23.47
2019-02-12T03:08:20.686Z,23.57
2019-02-12T03:10:49.499Z,23.80
2019-02-12T03:13:18.006Z,22.57
2019-02-12T03:15:46.532Z,22.57
2019-02-12T03:18:15.165Z,22.57
2019-02-12T03:20:43.827Z,22.20
2019-02-12T03:23:12.518Z,27.07
2019-02-12T03:25:40.927Z,24.57
2019-02-12T03:28:09.311Z,22.97
2019-02-12T03:30:38.075Z,29.97
2019-02-12T03:33:06.463Z,24.63
2019-02-12T03:35:35.124Z,22.40
2019-02-12T03:38:03.821Z,23.00
2019-02-12T03:40:32.369Z,24.73
2019-02-12T03:43:01.003Z,29.37
2019-02-12T03:45:29.667Z,24.40
2019-02-12T03:47:58.286Z,24.50
2019-02-12T03:50:26.680Z,23.80
2019-02-12T03:52:55.130Z,22.10
2019-02-12T03:55:23.541Z,23.50
2019-02-12T03:57:51.947Z,29.90
2019-02-12T04:00:20.445Z,25.50
2019-02-12T04:03:03.394Z,25.23
2019-02-12T04:05:32.338Z,25.67
2019-02-12T04:08:01.185Z,26.37
2019-02-12T04:10:29.711Z,24.70
2019-02-12T04:12:58.150Z,24.70
2019-02-12T04:15:26.542Z,25.97
2019-02-12T04:17:54.964Z,27.10
2019-02-12T04:20:23.803Z,32.60
2019-02-12T04:22:52.471Z,29.50
2019-02-12T04:25:20.853Z,30.13
2019-02-12T04:27:49.267Z,32.60
2019-02-12T04:30:17.705Z,30.00
2019-02-12T04:32:46.316Z,26.93
2019-02-12T04:35:14.701Z,28.10
2019-02-12T04:37:43.091Z,32.07
2019-02-12T04:40:12.017Z,33.47
2019-02-12T04:42:40.730Z,28.13
2019-02-12T04:45:10.769Z,31.13
2019-02-12T04:47:39.158Z,34.50
2019-02-12T04:50:10.587Z,26.30
2019-02-12T04:52:39.452Z,26.67
2019-02-12T04:55:09.794Z,26.33
2019-02-12T04:57:38.278Z,26.20
2019-02-12T05:00:12.401Z,25.37
2019-02-12T05:02:41.074Z,27.30
2019-02-12T05:05:10.546Z,24.90
2019-02-12T05:07:38.996Z,25.20
2019-02-12T05:10:10.523Z,24.67
2019-02-12T05:12:38.925Z,23.97
2019-02-12T05:15:09.463Z,23.93
2019-02-12T05:17:38.026Z,24.53
2019-02-12T05:20:09.820Z,25.37
2019-02-12T05:22:43.528Z,25.83
2019-02-12T05:25:09.110Z,24.97
2019-02-12T05:27:37.501Z,24.93
2019-02-12T05:30:11.616Z,23.50
2019-02-12T05:32:40.152Z,24.57
2019-02-12T05:35:08.798Z,24.47
2019-02-12T05:37:37.340Z,25.13
2019-02-12T05:40:12.290Z,25.47
2019-02-12T05:42:40.679Z,24.73
2019-02-12T05:45:13.398Z,28.87
2019-02-12T05:47:41.858Z,25.37
2019-02-12T05:50:14.961Z,31.53
2019-02-12T05:52:53.273Z,30.00
2019-02-12T05:55:13.459Z,28.23
2019-02-12T05:57:41.944Z,33.23
2019-02-12T06:00:17.830Z,25.70
2019-02-12T06:02:46.320Z,29.43
2019-02-12T06:05:26.676Z,26.17
2019-02-12T06:07:55.057Z,26.67
2019-02-12T06:10:23.505Z,24.30
2019-02-12T06:12:51.846Z,31.40
2019-02-12T06:15:20.285Z,29.30
2019-02-12T06:17:49.058Z,28.33
2019-02-12T06:20:17.559Z,27.77
2019-02-12T06:22:45.952Z,29.93
2019-02-12T06:25:14.603Z,28.30
2019-02-12T06:27:43.102Z,35.53
2019-02-12T06:30:11.686Z,27.50
2019-02-12T06:32:40.312Z,25.70
2019-02-12T06:35:09.685Z,27.00
2019-02-12T06:37:38.073Z,26.67
2019-02-12T06:40:09.188Z,26.33
2019-02-12T06:42:37.603Z,27.50
2019-02-12T06:45:11.158Z,25.17
2019-02-12T06:47:39.567Z,25.87
2019-02-12T06:50:10.828Z,27.20
2019-02-12T06:52:39.229Z,25.33
2019-02-12T06:55:09.507Z,25.93
2019-02-12T06:57:37.898Z,25.07
2019-02-12T07:00:11.621Z,24.50
2019-02-12T07:03:05.353Z,28.13
2019-02-12T07:05:33.758Z,25.00
2019-02-12T07:08:20.084Z,25.10
2019-02-12T07:10:50.551Z,29.23
2019-02-12T07:13:27.575Z,29.20
2019-02-12T07:15:56.628Z,29.93
2019-02-12T07:18:30.757Z,30.77
2019-02-12T07:21:14.229Z,28.07
2019-02-12T07:24:01.995Z,31.33
2019-02-12T07:26:39.221Z,34.83
2019-02-12T07:29:34.514Z,31.23
2019-02-12T07:32:21.318Z,30.00
2019-02-12T07:34:52.966Z,30.73
2019-02-12T07:37:29.957Z,29.87
2019-02-12T07:40:22.328Z,28.87
2019-02-12T07:42:59.539Z,30.57
2019-02-12T07:45:33.794Z,28.90
2019-02-12T07:48:17.228Z,29.80
2019-02-12T07:50:57.866Z,28.70
2019-02-12T07:53:45.794Z,30.80
2019-02-12T07:56:35.329Z,34.90
2019-02-12T07:59:21.664Z,28.50
2019-02-12T08:02:05.751Z,29.97
2019-02-12T08:04:40.046Z,33.67
2019-02-12T08:07:19.955Z,30.13
2019-02-12T08:10:02.707Z,35.20
2019-02-12T08:12:43.087Z,34.93
2019-02-12T08:15:23.376Z,34.70
2019-02-12T08:17:57.496Z,30.23
2019-02-12T08:20:31.968Z,34.90
2019-02-12T08:23:24.213Z,33.60
2019-02-12T08:26:19.606Z,37.37
2019-02-12T08:28:59.819Z,34.63
2019-02-12T08:31:50.696Z,32.90
2019-02-12T08:34:34.653Z,30.93
2019-02-12T08:37:06.404Z,33.90
2019-02-12T08:39:49.694Z,30.63
2019-02-12T08:42:23.950Z,31.40
2019-02-12T08:45:13.832Z,37.23
2019-02-12T08:48:08.968Z,31.30
2019-02-12T08:51:01.293Z,31.03
2019-02-12T08:53:35.614Z,38.80
2019-02-12T08:56:19.134Z,30.73
2019-02-12T08:58:53.739Z,33.07
2019-02-12T09:01:54.289Z,33.40
2019-02-12T09:04:25.741Z,31.13
2019-02-12T09:07:18.327Z,29.60
2019-02-12T09:10:06.400Z,29.30
2019-02-12T09:12:59.381Z,31.00
2019-02-12T09:15:54.917Z,28.93
2019-02-12T09:18:44.761Z,34.03
2019-02-12T09:21:22.210Z,31.40
2019-02-12T09:24:12.844Z,34.93
2019-02-12T09:26:49.558Z,34.10
2019-02-12T09:29:41.803Z,35.07
2019-02-12T09:32:33.329Z,31.17
2019-02-12T09:35:08.031Z,32.60
2019-02-12T09:37:56.251Z,31.73
2019-02-12T09:40:30.916Z,30.53
2019-02-12T09:43:17.513Z,31.23
2019-02-12T09:46:11.494Z,37.67
2019-02-12T09:49:11.612Z,32.70
2019-02-12T09:51:49.413Z,36.67
2019-02-12T09:54:26.393Z,30.13
2019-02-12T09:57:04.005Z,29.63
2019-02-12T09:59:51.315Z,35.30
2019-02-12T10:02:28.480Z,32.13
2019-02-12T10:05:02.918Z,36.40
2019-02-12T10:07:43.622Z,37.97
2019-02-12T10:10:24.215Z,30.00
2019-02-12T10:13:04.154Z,34.97
2019-02-12T10:15:53.776Z,34.13
2019-02-12T10:18:33.973Z,30.07
2019-02-12T10:21:23.735Z,32.77
2019-02-12T10:24:20.720Z,32.43
2019-02-12T10:26:55.076Z,33.77
2019-02-12T10:29:26.523Z,31.17
2019-02-12T10:31:53.821Z,32.10
2019-02-12T10:34:22.235Z,30.53
2019-02-12T10:36:50.628Z,39.00
2019-02-12T10:39:19.294Z,32.07
2019-02-12T10:41:48.428Z,30.97
2019-02-12T10:44:17.114Z,34.73
2019-02-12T10:46:45.818Z,29.93
2019-02-12T10:49:14.493Z,32.93
2019-02-12T10:51:43.301Z,37.53
2019-02-12T10:54:13.509Z,34.37
2019-02-12T10:56:42.081Z,29.63
2019-02-12T10:59:10.605Z,28.37
2019-02-12T11:01:39.250Z,30.03
2019-02-12T11:04:07.767Z,38.60
2019-02-12T11:06:36.155Z,30.63
2019-02-12T11:09:05.894Z,37.73
2019-02-12T11:11:34.619Z,31.63
2019-02-12T11:14:03.013Z,29.57
2019-02-12T11:16:31.676Z,35.47
2019-02-12T11:19:00.066Z,34.13
2019-02-12T11:21:28.841Z,29.50
2019-02-12T11:23:57.304Z,32.73
2019-02-12T11:26:26.120Z,33.70
2019-02-12T11:28:54.520Z,34.00
2019-02-12T11:31:22.959Z,38.33
2019-02-12T11:33:51.661Z,28.73
2019-02-12T11:36:20.131Z,29.60
2019-02-12T11:38:48.521Z,32.53
2019-02-12T11:41:17.205Z,28.73
2019-02-12T11:43:45.623Z,34.10
2019-02-12T11:46:14.272Z,28.90
2019-02-12T11:48:42.961Z,39.43
2019-02-12T11:51:11.356Z,27.63
2019-02-12T11:53:40.128Z,36.13
2019-02-12T11:56:08.533Z,31.27
2019-02-12T11:58:36.932Z,30.67
2019-02-12T12:01:06.111Z,28.30
2019-02-12T12:03:34.588Z,25.50
2019-02-12T12:06:03.096Z,24.83
2019-02-12T12:08:31.831Z,32.90
2019-02-12T12:11:00.219Z,33.80
2019-02-12T12:13:28.896Z,28.37
2019-02-12T12:15:57.288Z,25.60
2019-02-12T12:18:26.063Z,27.57
2019-02-12T12:20:54.763Z,23.53
2019-02-12T12:23:23.843Z,28.00
2019-02-12T12:25:52.246Z,27.30
2019-02-12T12:28:21.020Z,29.60
2019-02-12T12:30:49.556Z,29.23
2019-02-12T12:33:18.496Z,27.63
2019-02-12T12:35:47.177Z,27.53
2019-02-12T12:38:15.878Z,25.73
2019-02-12T12:40:44.416Z,23.07
2019-02-12T12:43:12.805Z,26.43
2019-02-12T12:45:41.512Z,27.13
2019-02-12T12:48:10.194Z,24.67
2019-02-12T12:50:38.874Z,26.00
2019-02-12T12:53:07.575Z,24.87
2019-02-12T12:55:36.300Z,28.23
2019-02-12T12:58:05.340Z,26.63
2019-02-12T13:00:34.040Z,25.20
2019-02-12T13:03:02.720Z,20.33
2019-02-12T13:05:31.131Z,18.60
2019-02-12T13:07:59.603Z,24.03
2019-02-12T13:10:28.743Z,22.50
2019-02-12T13:12:57.911Z,23.40
2019-02-12T13:15:26.308Z,25.53
2019-02-12T13:17:54.775Z,16.80
2019-02-12T13:20:23.169Z,18.17
2019-02-12T13:22:51.791Z,20.37
2019-02-12T13:25:20.183Z,17.43
2019-02-12T13:27:48.816Z,20.50
2019-02-12T13:30:19.125Z,21.77
2019-02-12T13:32:47.524Z,23.03
2019-02-12T13:35:15.924Z,15.73
2019-02-12T13:37:44.669Z,15.37
2019-02-12T13:40:14.195Z,17.23
2019-02-12T13:42:42.647Z,16.10
2019-02-12T13:45:13.559Z,21.90
2019-02-12T13:47:42.479Z,20.63
2019-02-12T13:50:12.567Z,15.47
2019-02-12T13:52:41.017Z,16.83
2019-02-12T13:55:16.895Z,21.67
2019-02-12T13:57:40.772Z,23.13
2019-02-12T14:00:17.474Z,16.27
2019-02-12T14:02:46.806Z,14.70
2019-02-12T14:05:20.711Z,17.87
2019-02-12T14:07:49.096Z,17.33
2019-02-12T14:10:17.504Z,16.30
2019-02-12T14:12:46.048Z,18.00
2019-02-12T14:15:15.004Z,21.87
2019-02-12T14:17:43.517Z,14.67
2019-02-12T14:20:17.844Z,14.23
2019-02-12T14:22:46.368Z,16.93
2019-02-12T14:25:16.099Z,13.10
2019-02-12T14:27:44.499Z,17.17
2019-02-12T14:30:17.893Z,17.23
2019-02-12T14:32:46.233Z,17.50
2019-02-12T14:35:14.905Z,17.67
2019-02-12T14:37:43.293Z,17.17
2019-02-12T14:40:13.132Z,15.90
2019-02-12T14:42:41.595Z,16.50
2019-02-12T14:45:12.697Z,15.93
2019-02-12T14:47:41.251Z,14.17
2019-02-12T14:50:11.990Z,13.50
2019-02-12T14:52:40.398Z,18.20
2019-02-12T14:55:09.120Z,13.13
2019-02-12T14:57:37.527Z,13.87
2019-02-12T15:00:15.037Z,14.10
2019-02-12T15:02:43.488Z,12.97
2019-02-12T15:05:11.962Z,13.53
2019-02-12T15:07:40.352Z,13.93
2019-02-12T15:10:13.662Z,14.23
2019-02-12T15:12:42.060Z,14.33
2019-02-12T15:15:11.562Z,14.00
2019-02-12T15:17:40.464Z,16.67
2019-02-12T15:20:12.945Z,15.67
2019-02-12T15:22:41.503Z,17.97
2019-02-12T15:25:11.957Z,14.40
2019-02-12T15:27:41.301Z,18.87
2019-02-12T15:30:17.417Z,14.00
2019-02-12T15:32:45.975Z,17.63
2019-02-12T15:35:14.527Z,18.17
2019-02-12T15:37:43.311Z,15.73
2019-02-12T15:40:17.127Z,17.20
2019-02-12T15:42:45.683Z,16.10
2019-02-12T15:45:23.720Z,21.63
2019-02-12T15:47:52.176Z,16.73
2019-02-12T15:50:21.461Z,16.53
2019-02-12T15:52:50.214Z,16.43
2019-02-12T15:55:18.822Z,27.53
2019-02-12T15:57:47.377Z,22.33
2019-02-12T16:00:21.589Z,15.83
2019-02-12T16:02:50.119Z,18.17
2019-02-12T16:05:18.540Z,19.03
2019-02-12T16:07:47.653Z,19.20
2019-02-12T16:10:20.313Z,17.63
2019-02-12T16:12:51.140Z,20.10
2019-02-12T16:15:23.850Z,15.73
2019-02-12T16:17:50.075Z,15.10
2019-02-12T16:20:18.532Z,20.97
2019-02-12T16:22:47.101Z,17.27
2019-02-12T16:25:15.678Z,17.90
2019-02-12T16:27:44.061Z,18.00
2019-02-12T16:30:17.226Z,14.37
2019-02-12T16:32:45.722Z,13.73
2019-02-12T16:37:49.947Z,13.83
2019-02-12T16:40:18.602Z,16.37
2019-02-12T16:42:47.052Z,15.90
2019-02-12T16:45:18.609Z,19.53
2019-02-12T16:47:46.999Z,14.30
2019-02-12T16:50:15.406Z,16.47
2019-02-12T16:52:43.869Z,17.93
2019-02-12T16:55:12.501Z,17.23
2019-02-12T16:57:41.017Z,15.67
2019-02-12T17:00:12.338Z,16.53
2019-02-12T17:02:40.777Z,18.70
2019-02-12T17:05:11.450Z,20.70
2019-02-12T17:07:39.968Z,16.10
2019-02-12T17:10:10.114Z,16.77
2019-02-12T17:12:38.512Z,22.43
2019-02-12T17:15:09.841Z,18.83
2019-02-12T17:17:38.300Z,19.40
2019-02-12T17:20:09.747Z,23.70
2019-02-12T17:22:38.192Z,21.40
2019-02-12T17:25:09.560Z,17.40
2019-02-12T17:27:38.004Z,18.10
2019-02-12T17:30:12.206Z,17.13
2019-02-12T17:32:40.597Z,17.63
2019-02-12T17:35:09.627Z,17.50
2019-02-12T17:37:38.019Z,17.30
2019-02-12T17:40:17.302Z,18.27
2019-02-12T17:42:45.761Z,21.20
2019-02-12T17:45:18.777Z,20.37
2019-02-12T17:47:47.166Z,17.40
2019-02-12T17:50:16.047Z,17.80
2019-02-12T17:52:44.586Z,22.83
2019-02-12T17:55:13.037Z,22.80
2019-02-12T17:57:41.422Z,22.93
2019-02-12T18:00:21.823Z,19.33
2019-02-12T18:02:50.218Z,25.60
2019-02-12T18:05:18.632Z,25.53
2019-02-12T18:07:47.036Z,18.53
2019-02-12T18:10:15.429Z,22.20
2019-02-12T18:12:43.976Z,19.20
2019-02-12T18:15:13.812Z,18.23
2019-02-12T18:17:42.440Z,20.57
2019-02-12T18:20:13.083Z,21.03
2019-02-12T18:22:41.476Z,19.10
2019-02-12T18:25:10.934Z,21.63
2019-02-12T18:27:40.174Z,20.43
2019-02-12T18:30:18.200Z,20.07
2019-02-12T18:32:46.909Z,20.80
2019-02-12T18:35:15.642Z,19.73
2019-02-12T18:37:44.097Z,19.07
2019-02-12T18:40:15.079Z,21.27
2019-02-12T18:42:43.462Z,24.77
2019-02-12T18:45:14.875Z,19.47
2019-02-12T18:47:43.660Z,20.00
2019-02-12T18:50:12.513Z,20.20
2019-02-12T18:52:40.967Z,22.07
2019-02-12T18:55:11.871Z,21.00
2019-02-12T18:57:40.543Z,20.63
2019-02-12T19:00:17.882Z,19.07
2019-02-12T19:02:46.277Z,22.27
2019-02-12T19:05:14.881Z,21.60
2019-02-12T19:07:43.670Z,24.97
2019-02-12T19:10:14.059Z,23.47
2019-02-12T19:12:42.707Z,19.97
2019-02-12T19:15:13.703Z,21.20
2019-02-12T19:17:43.701Z,21.53
2019-02-12T19:20:13.524Z,22.70
2019-02-12T19:22:41.860Z,26.20
2019-02-12T19:25:11.318Z,23.80
2019-02-12T19:27:39.735Z,22.80
2019-02-12T19:30:13.858Z,22.17
2019-02-12T19:32:42.329Z,22.47
2019-02-12T19:35:11.468Z,24.03
2019-02-12T19:37:39.999Z,21.43
2019-02-12T19:40:12.349Z,21.43
2019-02-12T19:42:40.782Z,21.87
2019-02-12T19:45:14.399Z,21.60
2019-02-12T19:47:42.785Z,25.13
2019-02-12T19:50:12.543Z,20.97
2019-02-12T19:52:40.936Z,25.80
2019-02-12T19:55:10.304Z,21.70
2019-02-12T19:57:38.708Z,22.90
2019-02-12T20:00:14.951Z,22.20
2019-02-12T20:02:43.437Z,29.70
2019-02-12T20:05:12.576Z,22.90
2019-02-12T20:07:40.972Z,22.77
2019-02-12T20:10:13.718Z,21.17
2019-02-12T20:12:42.125Z,21.10
2019-02-12T20:15:16.143Z,24.30
2019-02-12T20:17:44.572Z,21.63
2019-02-12T20:20:13.552Z,22.57
2019-02-12T20:22:42.359Z,21.20
2019-02-12T20:25:11.214Z,22.93
2019-02-12T20:27:39.622Z,20.90
2019-02-12T20:30:17.953Z,25.10
2019-02-12T20:32:46.349Z,22.20
2019-02-12T20:35:16.944Z,21.90
2019-02-12T20:37:45.420Z,26.63
2019-02-12T20:40:14.537Z,22.23
2019-02-12T20:42:43.138Z,21.40
2019-02-12T20:45:16.593Z,24.80
2019-02-12T20:47:45.045Z,21.80
2019-02-12T20:50:20.899Z,23.60
2019-02-12T20:52:49.736Z,22.73
2019-02-12T20:55:18.198Z,24.50
2019-02-12T20:57:46.722Z,22.83
2019-02-12T21:00:17.360Z,25.67
2019-02-12T21:02:45.811Z,24.43
2019-02-12T21:05:15.784Z,23.97
2019-02-12T21:07:44.232Z,24.20
2019-02-12T21:10:17.718Z,24.60
2019-02-12T21:12:46.127Z,24.60
2019-02-12T21:15:20.086Z,25.83
2019-02-12T21:17:48.470Z,25.03
2019-02-12T21:20:16.949Z,24.00
2019-02-12T21:22:45.415Z,24.67
2019-02-12T21:25:14.224Z,25.50
2019-02-12T21:27:42.623Z,25.47
2019-02-12T21:30:22.317Z,24.83
2019-02-12T21:32:50.925Z,24.00
2019-02-12T21:35:19.376Z,24.07
2019-02-12T21:37:47.759Z,24.73
2019-02-12T21:40:21.600Z,26.50
2019-02-12T21:42:50.231Z,23.00
2019-02-12T21:45:18.996Z,23.87
2019-02-12T21:47:47.388Z,24.33
2019-02-12T21:50:15.772Z,24.67
2019-02-12T21:52:44.163Z,23.60
2019-02-12T21:55:17.428Z,23.77
2019-02-12T21:57:45.813Z,23.00
2019-02-12T22:00:19.243Z,22.93
2019-02-12T22:02:47.599Z,22.70
2019-02-12T22:05:17.367Z,22.80
2019-02-12T22:07:45.909Z,22.70
2019-02-12T22:10:17.113Z,22.70
2019-02-12T22:12:45.500Z,23.20
2019-02-12T22:15:13.900Z,22.23
2019-02-12T22:17:42.659Z,22.60
2019-02-12T22:20:13.089Z,21.83
2019-02-12T22:22:41.490Z,21.83
2019-02-12T22:25:10.626Z,21.60
2019-02-12T22:27:40.664Z,22.63
2019-02-12T22:30:12.419Z,22.83
2019-02-12T22:32:40.919Z,24.03
2019-02-12T22:35:09.400Z,22.37
2019-02-12T22:37:38.065Z,23.70
2019-02-12T22:40:09.825Z,22.03
2019-02-12T22:42:38.226Z,23.20
2019-02-12T22:45:09.732Z,23.40
2019-02-12T22:47:38.444Z,25.07
2019-02-12T22:50:10.103Z,24.17
2019-02-12T22:52:38.762Z,22.70
2019-02-12T22:55:09.425Z,23.30
2019-02-12T22:57:38.076Z,22.57
2019-02-12T23:00:15.293Z,23.77
2019-02-12T23:02:44.176Z,24.50
2019-02-12T23:05:12.870Z,24.00
2019-02-12T23:07:41.258Z,24.47
2019-02-12T23:10:10.264Z,25.60
2019-02-12T23:12:38.923Z,24.67
2019-02-12T23:15:08.364Z,24.80
2019-02-12T23:17:37.216Z,23.80
2019-02-12T23:20:06.744Z,23.17
2019-02-12T23:22:35.406Z,23.60
2019-02-12T23:25:04.135Z,23.33
2019-02-12T23:27:32.535Z,23.43
2019-02-12T23:30:00.921Z,24.10
2019-02-12T23:32:29.318Z,22.70
2019-02-12T23:34:57.744Z,24.17
2019-02-12T23:37:26.401Z,22.97
2019-02-12T23:39:54.790Z,23.67
2019-02-12T23:42:23.779Z,24.40
2019-02-12T23:44:52.231Z,23.30
2019-02-12T23:47:20.617Z,23.83
2019-02-12T23:49:49.526Z,24.07
2019-02-12T23:52:17.916Z,24.33
2019-02-12T23:54:46.295Z,22.13
2019-02-12T23:57:14.694Z,22.63
2019-02-12T23:59:43.166Z,21.13
